Terminal Aerodrome Forecast
Issued by NWS

Home | Current Version | Previous Version | Text Only | Print | Product List | Glossary On
Versions: 1 2 3 4 5 6 7 8 9 10 11 12 13 14 15
188
FTUS44 KLIX 251120
TAFMSY
TAF
KMSY 251120Z 2512/2612 22006KT P6SM FEW020 FEW120
     FM251800 32006KT P6SM FEW080 SCT100 PROB30 2521/2524 4SM -TSRA
      BKN080CB
     FM260300 00000KT P6SM FEW080 SCT200=

USA.gov is the U.S. government's official web portal to all federal, state and local government web resources and services.